createdAt,value
2018-08-11T00:00:46.493Z,92826.13
2018-08-11T00:03:22.400Z,92825.47
2018-08-11T00:05:58.311Z,92826.00
2018-08-11T00:08:34.092Z,92820.23
2018-08-11T00:11:10.402Z,92819.30
2018-08-11T00:13:46.160Z,92818.66
2018-08-11T00:16:22.639Z,92822.42
2018-08-11T00:18:59.001Z,92819.22
2018-08-11T00:21:34.901Z,92820.64
2018-08-11T00:24:10.761Z,92821.70
2018-08-11T00:26:46.414Z,92825.97
2018-08-11T00:29:22.293Z,92818.50
2018-08-11T00:31:58.321Z,92817.64
2018-08-11T00:34:34.163Z,92819.70
2018-08-11T00:37:10.049Z,92822.33
2018-08-11T00:39:46.029Z,92818.98
2018-08-11T00:42:21.859Z,92814.88
2018-08-11T00:44:57.665Z,92810.19
2018-08-11T00:47:33.406Z,92804.59
2018-08-11T00:50:20.456Z,92802.69
2018-08-11T00:52:57.081Z,92804.54
2018-08-11T00:55:35.609Z,92797.49
2018-08-11T00:58:11.509Z,92798.05
2018-08-11T01:00:47.619Z,92796.13
2018-08-11T01:03:24.344Z,92793.39
2018-08-11T01:06:00.174Z,92802.77
2018-08-11T01:08:36.024Z,92795.05
2018-08-11T01:11:12.003Z,92795.42
2018-08-11T01:13:47.668Z,92794.00
2018-08-11T01:16:23.545Z,92793.84
2018-08-11T01:18:59.317Z,92794.30
2018-08-11T01:21:35.679Z,92796.02
2018-08-11T01:24:11.604Z,92792.42
2018-08-11T01:26:47.795Z,92795.50
2018-08-11T01:29:24.522Z,92797.33
2018-08-11T01:32:00.505Z,92794.34
2018-08-11T01:34:36.458Z,92791.33
2018-08-11T01:37:12.475Z,92785.02
2018-08-11T01:39:48.285Z,92781.94
2018-08-11T01:42:24.229Z,92782.36
2018-08-11T01:44:59.992Z,92777.94
2018-08-11T01:47:35.885Z,92776.44
2018-08-11T01:50:12.914Z,92775.22
2018-08-11T01:52:49.186Z,92779.08
2018-08-11T01:55:24.779Z,92775.17
2018-08-11T01:58:01.035Z,92771.25
2018-08-11T02:00:36.746Z,92775.23
2018-08-11T02:03:12.504Z,92769.19
2018-08-11T02:05:48.270Z,92772.61
2018-08-11T02:08:24.152Z,92771.52
2018-08-11T02:10:59.944Z,92770.80
2018-08-11T02:13:35.672Z,92771.24
2018-08-11T02:16:11.552Z,92766.33
2018-08-11T02:18:47.897Z,92760.78
2018-08-11T02:21:23.478Z,92762.06
2018-08-11T02:23:59.355Z,92766.63
2018-08-11T02:26:35.235Z,92762.92
2018-08-11T02:29:11.107Z,92757.16
2018-08-11T02:31:46.852Z,92756.86
2018-08-11T02:34:22.747Z,92751.48
2018-08-11T02:36:58.728Z,92754.98
2018-08-11T02:39:34.813Z,92754.55
2018-08-11T02:42:10.973Z,92757.05
2018-08-11T02:44:46.826Z,92747.69
2018-08-11T02:47:22.978Z,92750.59
2018-08-11T02:49:58.819Z,92744.13
2018-08-11T02:52:34.515Z,92748.98
2018-08-11T02:55:10.828Z,92756.09
2018-08-11T02:57:46.469Z,92754.89
2018-08-11T03:00:22.401Z,92754.81
2018-08-11T03:02:58.116Z,92757.51
2018-08-11T03:05:33.904Z,92760.14
2018-08-11T03:08:09.615Z,92757.51
2018-08-11T03:10:48.931Z,92753.23
2018-08-11T03:13:25.829Z,92753.95
2018-08-11T03:16:01.554Z,92751.95
2018-08-11T03:18:37.290Z,92756.64
2018-08-11T03:21:13.148Z,92747.10
2018-08-11T03:23:48.903Z,92750.95
2018-08-11T03:26:24.700Z,92742.55
2018-08-11T03:29:00.398Z,92738.42
2018-08-11T03:31:36.640Z,92737.14
2018-08-11T03:34:12.310Z,92745.90
2018-08-11T03:36:48.553Z,92739.98
2018-08-11T03:39:24.311Z,92738.12
2018-08-11T03:42:00.237Z,92741.98
2018-08-11T03:44:35.984Z,92737.41
2018-08-11T03:47:11.838Z,92743.16
2018-08-11T03:49:47.692Z,92738.13
2018-08-11T03:52:23.484Z,92740.08
2018-08-11T03:54:59.223Z,92742.16
2018-08-11T03:57:35.120Z,92745.73
2018-08-11T04:00:12.574Z,92742.39
2018-08-11T04:02:48.325Z,92745.64
2018-08-11T04:05:24.170Z,92743.92
2018-08-11T04:08:00.033Z,92744.33
2018-08-11T04:10:35.914Z,92747.53
2018-08-11T04:13:11.682Z,92759.28
2018-08-11T04:15:47.398Z,92754.68
2018-08-11T04:18:23.157Z,92751.33
2018-08-11T04:20:58.998Z,92758.05
2018-08-11T04:23:34.924Z,92760.97
2018-08-11T04:26:10.786Z,92760.64
2018-08-11T04:28:46.552Z,92759.34
2018-08-11T04:31:22.253Z,92763.88
2018-08-11T04:34:03.642Z,92758.89
2018-08-11T04:36:39.433Z,92763.80
2018-08-11T04:39:15.060Z,92764.63
2018-08-11T04:41:50.920Z,92769.50
2018-08-11T04:44:26.821Z,92761.68
2018-08-11T04:47:02.596Z,92764.77
2018-08-11T04:49:38.525Z,92769.67
2018-08-11T04:52:14.367Z,92761.41
2018-08-11T04:54:50.726Z,92764.41
2018-08-11T04:57:26.777Z,92759.80
2018-08-11T05:00:02.661Z,92764.34
2018-08-11T05:02:38.456Z,92768.84
2018-08-11T05:05:16.265Z,92770.48
2018-08-11T05:07:52.014Z,92763.22
2018-08-11T05:10:27.867Z,92767.40
2018-08-11T05:13:03.661Z,92764.23
2018-08-11T05:15:39.547Z,92767.91
2018-08-11T05:18:15.354Z,92764.00
2018-08-11T05:20:51.380Z,92761.98
2018-08-11T05:23:27.236Z,92758.09
2018-08-11T05:26:03.061Z,92760.89
2018-08-11T05:28:38.841Z,92761.65
2018-08-11T05:31:14.632Z,92762.42
2018-08-11T05:33:50.450Z,92760.45
2018-08-11T05:36:26.512Z,92755.75
2018-08-11T05:39:02.348Z,92760.67
2018-08-11T05:41:38.682Z,92753.03
2018-08-11T05:44:14.697Z,92755.25
2018-08-11T05:46:50.670Z,92752.23
2018-08-11T05:49:26.481Z,92756.08
2018-08-11T05:52:02.312Z,92754.84
2018-08-11T05:54:38.869Z,92747.30
2018-08-11T05:57:14.804Z,92751.41
2018-08-11T05:59:50.521Z,92752.19
2018-08-11T06:02:26.491Z,92751.14
2018-08-11T06:05:02.431Z,92748.27
2018-08-11T06:07:33.402Z,92745.07
2018-08-11T06:10:05.066Z,92746.45
2018-08-11T06:12:35.879Z,92743.14
2018-08-11T06:15:07.111Z,92740.77
2018-08-11T06:17:38.047Z,92740.23
2018-08-11T06:20:09.938Z,92732.83
2018-08-11T06:22:40.833Z,92728.66
2018-08-11T06:25:12.726Z,92734.30
2018-08-11T06:27:43.591Z,92724.66
2018-08-11T06:30:16.407Z,92720.86
2018-08-11T06:32:47.361Z,92721.92
2018-08-11T06:35:18.167Z,92726.66
2018-08-11T06:37:49.866Z,92724.13
2018-08-11T06:40:20.657Z,92734.17
2018-08-11T06:42:51.475Z,92731.74
2018-08-11T06:45:22.817Z,92721.13
2018-08-11T06:47:53.657Z,92717.55
2018-08-11T06:50:24.421Z,92716.33
2018-08-11T06:52:55.299Z,92716.80
2018-08-11T06:55:26.106Z,92721.86
2018-08-11T06:57:57.229Z,92715.59
2018-08-11T07:00:27.990Z,92709.76
2018-08-11T07:03:02.851Z,92709.39
2018-08-11T07:05:38.130Z,92705.68
2018-08-11T07:08:09.933Z,92710.36
2018-08-11T07:10:40.687Z,92704.97
2018-08-11T07:13:11.536Z,92710.36
2018-08-11T07:15:42.906Z,92704.27
2018-08-11T07:18:13.729Z,92697.74
2018-08-11T07:20:44.505Z,92697.59
2018-08-11T07:23:15.354Z,92692.14
2018-08-11T07:25:46.146Z,92688.11
2018-08-11T07:28:17.011Z,92688.84
2018-08-11T07:30:47.772Z,92683.64
2018-08-11T07:33:18.795Z,92683.58
2018-08-11T07:35:49.589Z,92683.95
2018-08-11T07:38:20.498Z,92678.46
2018-08-11T07:40:51.490Z,92681.25
2018-08-11T07:43:22.284Z,92683.58
2018-08-11T07:45:56.350Z,92674.41
2018-08-11T07:48:27.132Z,92673.94
2018-08-11T07:50:57.905Z,92680.91
2018-08-11T07:53:28.764Z,92676.11
2018-08-11T07:55:59.535Z,92675.55
2018-08-11T07:58:30.570Z,92669.56
2018-08-11T08:01:01.349Z,92669.75
2018-08-11T08:03:32.177Z,92670.97
2018-08-11T08:06:02.921Z,92666.98
2018-08-11T08:08:34.682Z,92668.05
2018-08-11T08:11:05.855Z,92668.48
2018-08-11T08:13:36.691Z,92660.94
2018-08-11T08:16:07.723Z,92671.80
2018-08-11T08:18:39.347Z,92657.09
2018-08-11T08:21:10.494Z,92656.91
2018-08-11T08:23:41.369Z,92662.14
2018-08-11T08:26:12.173Z,92661.48
2018-08-11T08:28:43.183Z,92660.05
2018-08-11T08:31:16.419Z,92651.16
2018-08-11T08:33:47.244Z,92653.75
2018-08-11T08:36:18.021Z,92645.83
2018-08-11T08:38:48.877Z,92646.94
2018-08-11T08:41:19.685Z,92637.43
2018-08-11T08:43:50.491Z,92638.16
2018-08-11T08:46:21.315Z,92629.33
2018-08-11T08:48:52.213Z,92632.47
2018-08-11T08:51:22.993Z,92626.74
2018-08-11T08:53:53.885Z,92625.34
2018-08-11T08:56:24.634Z,92620.38
2018-08-11T08:58:55.443Z,92621.13
2018-08-11T09:01:26.223Z,92613.80
2018-08-11T09:03:57.021Z,92616.20
2018-08-11T09:06:28.391Z,92611.69
2018-08-11T09:09:00.397Z,92605.95
2018-08-11T09:11:32.049Z,92613.37
2018-08-11T09:14:02.857Z,92599.12
2018-08-11T09:16:33.659Z,92595.86
2018-08-11T09:19:04.635Z,92593.91
2018-08-11T09:21:35.427Z,92589.88
2018-08-11T09:24:06.276Z,92592.71
2018-08-11T09:26:37.046Z,92585.67
2018-08-11T09:29:07.902Z,92584.66
2018-08-11T09:31:42.252Z,92577.34
2018-08-11T09:34:13.048Z,92570.70
2018-08-11T09:36:43.834Z,92573.39
2018-08-11T09:39:14.714Z,92563.48
2018-08-11T09:41:45.511Z,92568.86
2018-08-11T09:44:16.355Z,92563.64
2018-08-11T09:46:47.512Z,92558.69
2018-08-11T09:49:18.316Z,92561.63
2018-08-11T09:51:49.148Z,92550.68
2018-08-11T09:54:19.991Z,92548.48
2018-08-11T09:56:50.884Z,92545.82
2018-08-11T09:59:21.719Z,92542.39
2018-08-11T10:01:57.630Z,92543.64
2018-08-11T10:04:28.881Z,92547.37
2018-08-11T10:06:59.632Z,92544.09
2018-08-11T10:09:30.563Z,92538.94
2018-08-11T10:12:01.327Z,92537.88
2018-08-11T10:14:32.181Z,92538.39
2018-08-11T10:17:02.968Z,92530.78
2018-08-11T10:19:33.783Z,92526.95
2018-08-11T10:22:04.569Z,92525.10
2018-08-11T10:24:35.629Z,92521.79
2018-08-11T10:27:06.413Z,92517.88
2018-08-11T10:29:37.200Z,92522.86
2018-08-11T10:32:08.421Z,92530.78
2018-08-11T10:34:42.122Z,92521.58
2018-08-11T10:37:12.868Z,92523.53
2018-08-11T10:39:43.840Z,92519.73
2018-08-11T10:42:15.380Z,92515.09
2018-08-11T10:44:46.190Z,92513.91
2018-08-11T10:47:16.967Z,92513.41
2018-08-11T10:49:47.798Z,92505.88
2018-08-11T10:52:18.730Z,92501.33
2018-08-11T10:54:49.744Z,92493.16
2018-08-11T10:57:20.496Z,92484.78
2018-08-11T10:59:54.166Z,92486.97
2018-08-11T11:02:24.905Z,92484.20
2018-08-11T11:04:56.684Z,92481.47
2018-08-11T11:07:27.456Z,92476.59
2018-08-11T11:09:58.385Z,92481.41
2018-08-11T11:12:29.135Z,92475.24
2018-08-11T11:14:59.928Z,92472.41
2018-08-11T11:17:30.827Z,92471.03
2018-08-11T11:20:01.841Z,92473.11
2018-08-11T11:22:32.590Z,92464.78
2018-08-11T11:25:06.643Z,92462.66
2018-08-11T11:27:37.675Z,92466.88
2018-08-11T11:30:08.669Z,92453.61
2018-08-11T11:32:39.471Z,92465.42
2018-08-11T11:35:10.313Z,92465.48
2018-08-11T11:37:41.078Z,92468.20
2018-08-11T11:40:11.944Z,92452.27
2018-08-11T11:42:42.738Z,92447.34
2018-08-11T11:45:13.744Z,92447.32
2018-08-11T11:47:44.508Z,92448.02
2018-08-11T11:50:18.507Z,92443.83
2018-08-11T11:52:49.287Z,92443.16
2018-08-11T11:55:20.503Z,92440.41
2018-08-11T11:57:51.277Z,92441.85
2018-08-11T12:00:22.084Z,92431.98
2018-08-11T12:02:52.856Z,92430.47
2018-08-11T12:05:23.665Z,92427.59
2018-08-11T12:07:54.437Z,92420.58
2018-08-11T12:10:32.749Z,92419.31
2018-08-11T12:13:03.527Z,92419.31
2018-08-11T12:15:34.343Z,92417.89
2018-08-11T12:18:05.825Z,92410.64
2018-08-11T12:20:36.995Z,92404.01
2018-08-11T12:23:07.783Z,92404.52
2018-08-11T12:25:38.642Z,92398.77
2018-08-11T12:28:09.404Z,92402.47
2018-08-11T12:30:40.236Z,92395.91
2018-08-11T12:33:11.001Z,92391.98
2018-08-11T12:35:41.841Z,92385.72
2018-08-11T12:38:13.703Z,92382.60
2018-08-11T12:40:44.569Z,92380.58
2018-08-11T12:43:15.361Z,92377.78
2018-08-11T12:45:46.423Z,92373.34
2018-08-11T12:48:17.750Z,92370.64
2018-08-11T12:50:48.574Z,92375.59
2018-08-11T12:53:19.352Z,92365.17
2018-08-11T12:55:50.226Z,92372.90
2018-08-11T12:58:21.001Z,92372.23
2018-08-11T13:00:51.800Z,92364.63
2018-08-11T13:03:22.592Z,92368.10
2018-08-11T13:05:53.380Z,92366.03
2018-08-11T13:08:24.155Z,92363.95
2018-08-11T13:10:55.090Z,92365.34
2018-08-11T13:13:25.862Z,92369.48
2018-08-11T13:15:56.717Z,92363.83
2018-08-11T13:18:28.862Z,92367.34
2018-08-11T13:20:59.672Z,92368.69
2018-08-11T13:23:30.494Z,92363.86
2018-08-11T13:26:01.360Z,92359.61
2018-08-11T13:28:32.112Z,92358.58
2018-08-11T13:31:02.930Z,92359.32
2018-08-11T13:33:34.100Z,92347.91
2018-08-11T13:36:05.745Z,92356.27
2018-08-11T13:38:36.535Z,92346.28
2018-08-11T13:41:08.837Z,92349.63
2018-08-11T13:43:40.328Z,92349.78
2018-08-11T13:46:11.144Z,92352.09
2018-08-11T13:48:41.912Z,92347.55
2018-08-11T13:51:12.705Z,92345.38
2018-08-11T13:53:43.836Z,92341.28
2018-08-11T13:56:14.716Z,92340.50
2018-08-11T13:58:45.499Z,92340.80
2018-08-11T14:01:16.297Z,92344.13
2018-08-11T14:03:47.197Z,92332.22
2018-08-11T14:06:18.049Z,92334.09
2018-08-11T14:08:48.905Z,92331.46
2018-08-11T14:11:21.426Z,92330.03
2018-08-11T14:13:52.218Z,92338.09
2018-08-11T14:16:23.042Z,92329.95
2018-08-11T14:18:53.886Z,92328.76
2018-08-11T14:21:24.687Z,92327.63
2018-08-11T14:23:55.433Z,92335.80
2018-08-11T14:26:26.304Z,92331.67
2018-08-11T14:28:57.136Z,92333.78
2018-08-11T14:31:27.973Z,92336.98
2018-08-11T14:33:58.738Z,92335.35
2018-08-11T14:36:29.769Z,92338.38
2018-08-11T14:39:00.591Z,92334.72
2018-08-11T14:41:31.385Z,92332.22
2018-08-11T14:44:02.218Z,92334.46
2018-08-11T14:46:33.063Z,92335.19
2018-08-11T14:49:03.869Z,92331.25
2018-08-11T14:51:34.681Z,92339.97
2018-08-11T14:54:05.840Z,92340.77
2018-08-11T14:56:36.640Z,92339.48
2018-08-11T14:59:07.430Z,92337.05
2018-08-11T15:01:38.234Z,92338.06
2018-08-11T15:04:09.026Z,92340.89
2018-08-11T15:06:39.824Z,92330.41
2018-08-11T15:09:11.665Z,92330.38
2018-08-11T15:11:42.596Z,92340.06
2018-08-11T15:14:18.937Z,92334.80
2018-08-11T15:16:49.874Z,92339.38
2018-08-11T15:19:20.650Z,92336.53
2018-08-11T15:21:51.523Z,92345.78
2018-08-11T15:24:22.283Z,92348.26
2018-08-11T15:26:53.294Z,92345.19
2018-08-11T15:29:24.165Z,92351.06
2018-08-11T15:31:55.184Z,92354.88
2018-08-11T15:34:25.982Z,92352.71
2018-08-11T15:36:59.005Z,92348.31
2018-08-11T15:39:30.021Z,92355.66
2018-08-11T15:42:00.941Z,92352.45
2018-08-11T15:44:31.765Z,92355.05
2018-08-11T15:47:02.766Z,92352.14
2018-08-11T15:49:37.230Z,92360.41
2018-08-11T15:52:08.368Z,92364.46
2018-08-11T15:54:39.167Z,92363.53
2018-08-11T15:57:10.755Z,92358.89
2018-08-11T15:59:41.562Z,92359.61
2018-08-11T16:02:12.761Z,92358.69
2018-08-11T16:04:43.548Z,92357.95
2018-08-11T16:07:14.437Z,92364.89
2018-08-11T16:09:45.681Z,92370.45
2018-08-11T16:12:16.631Z,92369.59
2018-08-11T16:14:47.429Z,92372.80
2018-08-11T16:17:18.561Z,92377.08
2018-08-11T16:19:49.380Z,92377.22
2018-08-11T16:22:20.257Z,92379.80
2018-08-11T16:24:51.012Z,92382.37
2018-08-11T16:27:21.985Z,92389.78
2018-08-11T16:29:52.771Z,92385.14
2018-08-11T16:32:23.562Z,92387.20
2018-08-11T16:34:54.341Z,92387.55
2018-08-11T16:37:25.205Z,92391.11
2018-08-11T16:39:55.989Z,92398.06
2018-08-11T16:42:26.812Z,92403.45
2018-08-11T16:44:57.588Z,92400.81
2018-08-11T16:47:28.388Z,92406.22
2018-08-11T16:49:59.155Z,92410.48
2018-08-11T16:52:30.042Z,92417.09
2018-08-11T16:55:00.903Z,92412.78
2018-08-11T16:57:31.748Z,92408.27
2018-08-11T17:00:03.309Z,92416.50
2018-08-11T17:02:34.090Z,92421.23
2018-08-11T17:05:05.311Z,92422.96
2018-08-11T17:07:36.846Z,92429.33
2018-08-11T17:10:10.845Z,92427.22
2018-08-11T17:12:42.091Z,92427.42
2018-08-11T17:15:12.881Z,92430.17
2018-08-11T17:17:43.712Z,92434.27
2018-08-11T17:20:14.894Z,92446.66
2018-08-11T17:22:45.785Z,92447.17
2018-08-11T17:25:16.549Z,92449.02
2018-08-11T17:27:47.763Z,92446.81
2018-08-11T17:30:18.527Z,92448.79
2018-08-11T17:32:49.317Z,92450.70
2018-08-11T17:35:20.090Z,92461.55
2018-08-11T17:37:52.358Z,92457.26
2018-08-11T17:40:23.136Z,92462.67
2018-08-11T17:42:54.596Z,92456.70
2018-08-11T17:45:25.398Z,92465.17
2018-08-11T17:47:56.232Z,92475.61
2018-08-11T17:50:27.424Z,92477.86
2018-08-11T17:52:58.317Z,92481.64
2018-08-11T17:55:29.604Z,92486.56
2018-08-11T17:58:00.597Z,92485.53
2018-08-11T18:00:31.396Z,92494.50
2018-08-11T18:03:05.306Z,92494.14
2018-08-11T18:05:36.108Z,92501.92
2018-08-11T18:08:07.032Z,92506.19
2018-08-11T18:10:37.804Z,92509.12
2018-08-11T18:13:08.815Z,92517.04
2018-08-11T18:15:39.655Z,92519.94
2018-08-11T18:18:10.459Z,92517.01
2018-08-11T18:20:41.241Z,92519.13
2018-08-11T18:23:12.115Z,92518.83
2018-08-11T18:25:42.934Z,92527.17
2018-08-11T18:28:17.359Z,92531.88
2018-08-11T18:30:52.402Z,92533.33
2018-08-11T18:33:23.237Z,92535.38
2018-08-11T18:35:54.032Z,92546.20
2018-08-11T18:38:24.967Z,92551.42
2018-08-11T18:40:55.822Z,92552.28
2018-08-11T18:43:26.943Z,92558.73
2018-08-11T18:45:57.856Z,92560.84
2018-08-11T18:48:28.654Z,92571.55
2018-08-11T18:50:59.441Z,92572.02
2018-08-11T18:53:30.699Z,92572.44
2018-08-11T18:56:01.890Z,92577.97
2018-08-11T18:58:32.729Z,92575.69
2018-08-11T19:01:03.536Z,92579.06
2018-08-11T19:03:34.903Z,92588.66
2018-08-11T19:06:05.781Z,92597.34
2018-08-11T19:08:36.698Z,92599.02
2018-08-11T19:11:07.547Z,92599.56
2018-08-11T19:13:40.928Z,92596.19
2018-08-11T19:16:11.739Z,92597.95
2018-08-11T19:18:42.581Z,92595.83
2018-08-11T19:21:13.789Z,92592.77
2018-08-11T19:23:44.655Z,92591.51
2018-08-11T19:26:15.421Z,92591.27
2018-08-11T19:28:46.312Z,92594.84
2018-08-11T19:31:17.126Z,92597.46
2018-08-11T19:33:47.972Z,92598.13
2018-08-11T19:36:19.561Z,92605.45
2018-08-11T19:38:50.497Z,92600.66
2018-08-11T19:41:21.376Z,92604.80
2018-08-11T19:43:52.403Z,92610.46
2018-08-11T19:46:23.353Z,92609.81
2018-08-11T19:48:54.317Z,92603.61
2018-08-11T19:51:25.137Z,92606.76
2018-08-11T19:53:56.233Z,92606.30
2018-08-11T19:56:30.506Z,92607.92
2018-08-11T19:59:06.670Z,92612.97
2018-08-11T20:01:42.583Z,92606.70
2018-08-11T20:04:18.512Z,92607.93
2018-08-11T20:06:54.466Z,92615.66
2018-08-11T20:09:30.613Z,92614.88
2018-08-11T20:12:07.054Z,92616.72
2018-08-11T20:14:43.055Z,92619.44
2018-08-11T20:17:18.880Z,92624.65
2018-08-11T20:19:54.750Z,92622.03
2018-08-11T20:22:30.587Z,92614.13
2018-08-11T20:25:06.791Z,92613.36
2018-08-11T20:27:42.685Z,92602.95
2018-08-11T20:30:18.578Z,92613.20
2018-08-11T20:32:54.795Z,92612.64
2018-08-11T20:35:30.738Z,92610.47
2018-08-11T20:38:06.854Z,92615.84
2018-08-11T20:40:43.121Z,92611.83
2018-08-11T20:43:18.991Z,92614.71
2018-08-11T20:45:55.077Z,92619.78
2018-08-11T20:48:31.472Z,92623.37
2018-08-11T20:51:07.345Z,92625.27
2018-08-11T20:53:43.280Z,92614.21
2018-08-11T20:56:19.139Z,92617.42
2018-08-11T20:58:54.945Z,92618.95
2018-08-11T21:01:30.695Z,92620.11
2018-08-11T21:04:06.926Z,92617.84
2018-08-11T21:06:42.817Z,92619.78
2018-08-11T21:09:18.968Z,92619.27
2018-08-11T21:11:54.827Z,92624.82
2018-08-11T21:14:30.639Z,92610.95
2018-08-11T21:17:07.134Z,92614.90
2018-08-11T21:19:42.879Z,92623.49
2018-08-11T21:22:18.624Z,92616.59
2018-08-11T21:24:54.379Z,92618.85
2018-08-11T21:27:30.620Z,92616.59
2018-08-11T21:30:08.595Z,92608.09
2018-08-11T21:32:44.253Z,92612.38
2018-08-11T21:35:20.003Z,92615.11
2018-08-11T21:37:56.745Z,92614.10
2018-08-11T21:40:32.917Z,92619.03
2018-08-11T21:43:08.637Z,92622.03
2018-08-11T21:45:44.494Z,92621.88
2018-08-11T21:48:20.339Z,92616.84
2018-08-11T21:50:56.036Z,92614.22
2018-08-11T21:53:31.800Z,92610.91
2018-08-11T21:56:07.874Z,92611.86
2018-08-11T21:58:43.943Z,92603.88
2018-08-11T22:01:19.734Z,92601.97
2018-08-11T22:03:55.627Z,92599.86
2018-08-11T22:06:31.875Z,92602.45
2018-08-11T22:09:13.602Z,92597.02
2018-08-11T22:11:49.365Z,92603.21
2018-08-11T22:14:25.247Z,92596.03
2018-08-11T22:17:01.515Z,92599.81
2018-08-11T22:19:37.401Z,92599.44
2018-08-11T22:22:12.990Z,92599.29
2018-08-11T22:24:49.030Z,92594.39
2018-08-11T22:27:24.911Z,92591.55
2018-08-11T22:30:01.485Z,92592.30
2018-08-11T22:32:38.349Z,92591.94
2018-08-11T22:35:14.216Z,92593.95
2018-08-11T22:37:50.070Z,92584.16
2018-08-11T22:40:26.186Z,92589.34
2018-08-11T22:43:02.074Z,92591.14
2018-08-11T22:45:37.868Z,92590.00
2018-08-11T22:48:13.555Z,92587.11
2018-08-11T22:50:55.081Z,92588.41
2018-08-11T22:53:30.826Z,92584.34
2018-08-11T22:56:06.948Z,92587.69
2018-08-11T22:58:42.641Z,92589.61
2018-08-11T23:01:18.343Z,92585.39
2018-08-11T23:03:54.252Z,92589.59
2018-08-11T23:06:30.070Z,92582.44
2018-08-11T23:09:07.589Z,92581.89
2018-08-11T23:11:43.426Z,92576.11
2018-08-11T23:14:19.181Z,92570.34
2018-08-11T23:16:55.129Z,92569.75
2018-08-11T23:19:30.989Z,92570.31
2018-08-11T23:22:07.518Z,92571.30
2018-08-11T23:24:43.142Z,92558.88
2018-08-11T23:27:19.490Z,92557.99
2018-08-11T23:29:55.743Z,92554.22
2018-08-11T23:32:31.481Z,92554.42
2018-08-11T23:35:07.753Z,92566.94
2018-08-11T23:37:43.842Z,92559.78
2018-08-11T23:40:19.448Z,92556.10
2018-08-11T23:42:55.216Z,92561.03
2018-08-11T23:45:30.988Z,92558.91
2018-08-11T23:48:06.998Z,92559.38
2018-08-11T23:50:42.729Z,92552.61
2018-08-11T23:53:18.988Z,92558.95
2018-08-11T23:55:54.657Z,92550.95
2018-08-11T23:58:30.551Z,92551.32
